Great Dunmow, United Kingdom
Current Conditions -  °F | °C
As of 6:50 PM on Tuesday 21 Oct 2014 (Local Time) from EGSS Reporting Station
Few Clouds Few Clouds  
Wind Chill: 39°   Ceiling: Unl
Heat Index: 46°   Visibility: 6mi
Dew Point: 37°   Wind: 17mph
Humidity: 71%   Direction: 290°WNW
Pressure: 29.88"   Gusts: 29mph
Location:  51.87°N, 0.36°E
Report Text: EGSS 211750Z 29015G25KT 9999 FEW025 08/03 Q1012
Loading
Personal Weather Stations






























Interactive Weather Map New forecast layout! Learn more

10-Day Weather Forecast

Advertisements
Track Severe Weather on mobile